sensor_id;sensor_type;location;lat;lon;timestamp;P1;durP1;ratioP1;P2;durP2;ratioP2
26062;SDS011;13837;48.562;12.108;2022-09-09T00:00:24;13.73;;;12.63;;
26062;SDS011;13837;48.562;12.108;2022-09-09T00:03:02;13.02;;;12.23;;
26062;SDS011;13837;48.562;12.108;2022-09-09T00:06:27;11.90;;;11.00;;
26062;SDS011;13837;48.562;12.108;2022-09-09T00:08:42;12.18;;;11.15;;
26062;SDS011;13837;48.562;12.108;2022-09-09T00:11:25;11.05;;;10.25;;
26062;SDS011;13837;48.562;12.108;2022-09-09T00:13:58;10.75;;;9.93;;
26062;SDS011;13837;48.562;12.108;2022-09-09T00:16:29;11.40;;;10.25;;
26062;SDS011;13837;48.562;12.108;2022-09-09T00:19:08;10.52;;;9.50;;
26062;SDS011;13837;48.562;12.108;2022-09-09T00:21:52;10.63;;;9.77;;
26062;SDS011;13837;48.562;12.108;2022-09-09T00:24:43;10.98;;;10.32;;
26062;SDS011;13837;48.562;12.108;2022-09-09T00:30:12;10.75;;;10.00;;
26062;SDS011;13837;48.562;12.108;2022-09-09T00:32:39;12.40;;;11.40;;
26062;SDS011;13837;48.562;12.108;2022-09-09T00:37:37;12.93;;;12.05;;
26062;SDS011;13837;48.562;12.108;2022-09-09T00:40:11;14.35;;;12.52;;
26062;SDS011;13837;48.562;12.108;2022-09-09T00:42:47;14.52;;;13.52;;
26062;SDS011;13837;48.562;12.108;2022-09-09T00:48:05;14.38;;;13.30;;
26062;SDS011;13837;48.562;12.108;2022-09-09T00:56:29;13.75;;;12.70;;
26062;SDS011;13837;48.562;12.108;2022-09-09T01:01:54;11.85;;;11.05;;
26062;SDS011;13837;48.562;12.108;2022-09-09T01:04:23;12.07;;;11.18;;
26062;SDS011;13837;48.562;12.108;2022-09-09T01:07:04;11.95;;;11.25;;
26062;SDS011;13837;48.562;12.108;2022-09-09T01:12:58;12.27;;;11.32;;
26062;SDS011;13837;48.562;12.108;2022-09-09T01:15:30;11.00;;;10.27;;
26062;SDS011;13837;48.562;12.108;2022-09-09T01:18:00;11.18;;;10.48;;
26062;SDS011;13837;48.562;12.108;2022-09-09T01:26:35;10.93;;;10.23;;
26062;SDS011;13837;48.562;12.108;2022-09-09T01:29:12;10.10;;;9.38;;
26062;SDS011;13837;48.562;12.108;2022-09-09T01:31:52;10.85;;;10.00;;
26062;SDS011;13837;48.562;12.108;2022-09-09T01:34:20;10.43;;;9.80;;
26062;SDS011;13837;48.562;12.108;2022-09-09T01:39:19;10.93;;;9.88;;
26062;SDS011;13837;48.562;12.108;2022-09-09T01:41:53;10.73;;;9.90;;
26062;SDS011;13837;48.562;12.108;2022-09-09T01:44:21;10.68;;;9.85;;
26062;SDS011;13837;48.562;12.108;2022-09-09T01:46:47;11.73;;;10.77;;
26062;SDS011;13837;48.562;12.108;2022-09-09T01:49:18;11.75;;;11.15;;
26062;SDS011;13837;48.562;12.108;2022-09-09T01:51:45;11.75;;;10.77;;
26062;SDS011;13837;48.562;12.108;2022-09-09T01:54:15;12.30;;;11.32;;
26062;SDS011;13837;48.562;12.108;2022-09-09T02:09:49;13.80;;;12.88;;
26062;SDS011;13837;48.562;12.108;2022-09-09T02:12:20;12.48;;;11.60;;
26062;SDS011;13837;48.562;12.108;2022-09-09T02:15:04;13.45;;;12.15;;
26062;SDS011;13837;48.562;12.108;2022-09-09T02:17:46;12.80;;;11.90;;
26062;SDS011;13837;48.562;12.108;2022-09-09T02:20:16;12.15;;;11.25;;
26062;SDS011;13837;48.562;12.108;2022-09-09T02:22:53;11.73;;;10.93;;
26062;SDS011;13837;48.562;12.108;2022-09-09T02:25:23;12.82;;;11.70;;
26062;SDS011;13837;48.562;12.108;2022-09-09T02:27:54;12.10;;;11.13;;
26062;SDS011;13837;48.562;12.108;2022-09-09T02:30:23;12.30;;;11.48;;
26062;SDS011;13837;48.562;12.108;2022-09-09T02:32:53;11.52;;;10.73;;
26062;SDS011;13837;48.562;12.108;2022-09-09T02:35:40;12.80;;;11.88;;
26062;SDS011;13837;48.562;12.108;2022-09-09T02:38:09;13.32;;;12.43;;
26062;SDS011;13837;48.562;12.108;2022-09-09T02:40:41;14.02;;;12.77;;
26062;SDS011;13837;48.562;12.108;2022-09-09T02:43:08;12.82;;;11.70;;
26062;SDS011;13837;48.562;12.108;2022-09-09T02:45:41;11.90;;;11.10;;
26062;SDS011;13837;48.562;12.108;2022-09-09T02:48:41;11.60;;;10.85;;
26062;SDS011;13837;48.562;12.108;2022-09-09T02:51:39;11.35;;;10.43;;
26062;SDS011;13837;48.562;12.108;2022-09-09T02:56:46;11.93;;;11.02;;
26062;SDS011;13837;48.562;12.108;2022-09-09T02:59:17;12.18;;;11.18;;
26062;SDS011;13837;48.562;12.108;2022-09-09T03:01:43;11.38;;;10.52;;
26062;SDS011;13837;48.562;12.108;2022-09-09T03:04:10;11.30;;;10.60;;
26062;SDS011;13837;48.562;12.108;2022-09-09T03:06:36;11.35;;;10.30;;
26062;SDS011;13837;48.562;12.108;2022-09-09T03:09:13;11.35;;;10.48;;
26062;SDS011;13837;48.562;12.108;2022-09-09T03:11:38;11.60;;;10.02;;
26062;SDS011;13837;48.562;12.108;2022-09-09T03:14:05;10.50;;;9.90;;
26062;SDS011;13837;48.562;12.108;2022-09-09T03:16:31;11.13;;;9.90;;
26062;SDS011;13837;48.562;12.108;2022-09-09T03:19:00;9.68;;;8.98;;
26062;SDS011;13837;48.562;12.108;2022-09-09T03:21:26;11.07;;;10.07;;
26062;SDS011;13837;48.562;12.108;2022-09-09T03:23:53;11.57;;;10.50;;
26062;SDS011;13837;48.562;12.108;2022-09-09T03:26:19;10.75;;;10.02;;
26062;SDS011;13837;48.562;12.108;2022-09-09T03:28:46;10.00;;;9.45;;
26062;SDS011;13837;48.562;12.108;2022-09-09T03:31:15;10.32;;;9.73;;
26062;SDS011;13837;48.562;12.108;2022-09-09T03:33:41;9.77;;;9.05;;
26062;SDS011;13837;48.562;12.108;2022-09-09T03:36:10;10.40;;;9.80;;
26062;SDS011;13837;48.562;12.108;2022-09-09T03:38:36;9.85;;;9.32;;
26062;SDS011;13837;48.562;12.108;2022-09-09T03:41:02;9.73;;;9.00;;
26062;SDS011;13837;48.562;12.108;2022-09-09T03:43:31;9.57;;;8.82;;
26062;SDS011;13837;48.562;12.108;2022-09-09T03:45:57;9.40;;;8.70;;
26062;SDS011;13837;48.562;12.108;2022-09-09T03:48:24;9.65;;;8.98;;
26062;SDS011;13837;48.562;12.108;2022-09-09T03:50:53;10.10;;;9.37;;
26062;SDS011;13837;48.562;12.108;2022-09-09T03:53:22;9.75;;;9.15;;
26062;SDS011;13837;48.562;12.108;2022-09-09T03:55:50;9.70;;;8.80;;
26062;SDS011;13837;48.562;12.108;2022-09-09T03:58:21;11.57;;;10.45;;
26062;SDS011;13837;48.562;12.108;2022-09-09T04:01:02;9.45;;;8.95;;
26062;SDS011;13837;48.562;12.108;2022-09-09T04:03:30;10.45;;;9.40;;
26062;SDS011;13837;48.562;12.108;2022-09-09T04:05:57;10.93;;;10.20;;
26062;SDS011;13837;48.562;12.108;2022-09-09T04:08:25;14.00;;;9.90;;
26062;SDS011;13837;48.562;12.108;2022-09-09T04:10:52;10.93;;;9.88;;
26062;SDS011;13837;48.562;12.108;2022-09-09T04:13:22;11.82;;;10.73;;
26062;SDS011;13837;48.562;12.108;2022-09-09T04:15:52;11.15;;;10.20;;
26062;SDS011;13837;48.562;12.108;2022-09-09T04:18:23;11.15;;;10.38;;
26062;SDS011;13837;48.562;12.108;2022-09-09T04:20:50;11.30;;;10.23;;
26062;SDS011;13837;48.562;12.108;2022-09-09T04:23:19;10.45;;;9.68;;
26062;SDS011;13837;48.562;12.108;2022-09-09T04:25:46;11.18;;;10.07;;
26062;SDS011;13837;48.562;12.108;2022-09-09T04:28:14;11.25;;;10.45;;
26062;SDS011;13837;48.562;12.108;2022-09-09T04:30:41;11.23;;;10.60;;
26062;SDS011;13837;48.562;12.108;2022-09-09T04:33:08;11.60;;;10.43;;
26062;SDS011;13837;48.562;12.108;2022-09-09T04:35:35;12.40;;;11.35;;
26062;SDS011;13837;48.562;12.108;2022-09-09T04:38:02;12.43;;;11.63;;
26062;SDS011;13837;48.562;12.108;2022-09-09T04:40:30;11.63;;;10.73;;
26062;SDS011;13837;48.562;12.108;2022-09-09T04:43:00;12.13;;;11.20;;
26062;SDS011;13837;48.562;12.108;2022-09-09T04:45:28;13.32;;;12.05;;
26062;SDS011;13837;48.562;12.108;2022-09-09T04:47:55;11.48;;;10.68;;
26062;SDS011;13837;48.562;12.108;2022-09-09T04:50:21;11.90;;;11.00;;
26062;SDS011;13837;48.562;12.108;2022-09-09T04:52:47;11.27;;;10.55;;
26062;SDS011;13837;48.562;12.108;2022-09-09T04:55:13;13.30;;;12.18;;
26062;SDS011;13837;48.562;12.108;2022-09-09T04:57:42;13.73;;;12.43;;
26062;SDS011;13837;48.562;12.108;2022-09-09T05:00:10;12.43;;;11.52;;
26062;SDS011;13837;48.562;12.108;2022-09-09T05:05:07;15.93;;;14.43;;
26062;SDS011;13837;48.562;12.108;2022-09-09T05:07:34;16.58;;;14.15;;
26062;SDS011;13837;48.562;12.108;2022-09-09T05:09:59;18.67;;;17.02;;
26062;SDS011;13837;48.562;12.108;2022-09-09T05:12:25;17.00;;;15.48;;
26062;SDS011;13837;48.562;12.108;2022-09-09T05:14:51;16.08;;;14.80;;
26062;SDS011;13837;48.562;12.108;2022-09-09T05:17:17;15.25;;;14.05;;
26062;SDS011;13837;48.562;12.108;2022-09-09T05:19:43;13.18;;;11.98;;
26062;SDS011;13837;48.562;12.108;2022-09-09T05:22:09;12.88;;;11.95;;
26062;SDS011;13837;48.562;12.108;2022-09-09T05:24:41;12.32;;;11.52;;
26062;SDS011;13837;48.562;12.108;2022-09-09T05:27:09;13.50;;;11.85;;
26062;SDS011;13837;48.562;12.108;2022-09-09T05:29:38;12.47;;;11.43;;
26062;SDS011;13837;48.562;12.108;2022-09-09T05:32:05;15.27;;;12.30;;
26062;SDS011;13837;48.562;12.108;2022-09-09T05:34:31;13.82;;;12.60;;
26062;SDS011;13837;48.562;12.108;2022-09-09T05:36:57;13.63;;;12.52;;
26062;SDS011;13837;48.562;12.108;2022-09-09T05:39:24;15.05;;;13.75;;
26062;SDS011;13837;48.562;12.108;2022-09-09T05:41:50;14.25;;;12.98;;
26062;SDS011;13837;48.562;12.108;2022-09-09T05:44:16;15.38;;;14.02;;
26062;SDS011;13837;48.562;12.108;2022-09-09T05:46:42;14.75;;;13.65;;
26062;SDS011;13837;48.562;12.108;2022-09-09T05:49:12;14.02;;;12.85;;
26062;SDS011;13837;48.562;12.108;2022-09-09T05:51:40;14.70;;;13.45;;
26062;SDS011;13837;48.562;12.108;2022-09-09T05:54:10;15.10;;;13.65;;
26062;SDS011;13837;48.562;12.108;2022-09-09T05:56:41;13.05;;;11.88;;
26062;SDS011;13837;48.562;12.108;2022-09-09T05:59:08;12.40;;;11.50;;
26062;SDS011;13837;48.562;12.108;2022-09-09T06:01:35;13.10;;;12.00;;
26062;SDS011;13837;48.562;12.108;2022-09-09T06:04:05;12.75;;;11.55;;
26062;SDS011;13837;48.562;12.108;2022-09-09T06:06:33;11.10;;;10.02;;
26062;SDS011;13837;48.562;12.108;2022-09-09T06:09:02;10.57;;;9.82;;
26062;SDS011;13837;48.562;12.108;2022-09-09T06:11:33;9.10;;;8.50;;
26062;SDS011;13837;48.562;12.108;2022-09-09T06:14:02;11.85;;;8.98;;
26062;SDS011;13837;48.562;12.108;2022-09-09T06:16:30;8.73;;;8.00;;
26062;SDS011;13837;48.562;12.108;2022-09-09T06:18:58;9.15;;;8.35;;
26062;SDS011;13837;48.562;12.108;2022-09-09T06:21:29;9.02;;;8.32;;
26062;SDS011;13837;48.562;12.108;2022-09-09T06:23:59;12.20;;;8.77;;
26062;SDS011;13837;48.562;12.108;2022-09-09T06:26:26;12.18;;;9.90;;
26062;SDS011;13837;48.562;12.108;2022-09-09T06:28:55;10.00;;;9.07;;
26062;SDS011;13837;48.562;12.108;2022-09-09T06:31:24;9.35;;;8.65;;
26062;SDS011;13837;48.562;12.108;2022-09-09T06:33:53;10.50;;;9.38;;
26062;SDS011;13837;48.562;12.108;2022-09-09T06:38:48;13.82;;;10.40;;
26062;SDS011;13837;48.562;12.108;2022-09-09T06:41:15;10.20;;;9.60;;
26062;SDS011;13837;48.562;12.108;2022-09-09T06:43:44;11.05;;;10.27;;
26062;SDS011;13837;48.562;12.108;2022-09-09T06:46:12;10.85;;;10.05;;
26062;SDS011;13837;48.562;12.108;2022-09-09T06:48:38;11.38;;;10.55;;
26062;SDS011;13837;48.562;12.108;2022-09-09T06:51:14;10.95;;;10.15;;
26062;SDS011;13837;48.562;12.108;2022-09-09T06:53:42;11.32;;;10.63;;
26062;SDS011;13837;48.562;12.108;2022-09-09T06:58:37;12.13;;;11.32;;
26062;SDS011;13837;48.562;12.108;2022-09-09T07:01:11;11.80;;;10.80;;
26062;SDS011;13837;48.562;12.108;2022-09-09T07:03:46;12.05;;;11.20;;
26062;SDS011;13837;48.562;12.108;2022-09-09T07:06:18;12.18;;;11.25;;
26062;SDS011;13837;48.562;12.108;2022-09-09T07:08:52;12.18;;;11.38;;
26062;SDS011;13837;48.562;12.108;2022-09-09T07:11:24;12.57;;;11.68;;
26062;SDS011;13837;48.562;12.108;2022-09-09T07:13:56;12.57;;;11.57;;
26062;SDS011;13837;48.562;12.108;2022-09-09T07:16:23;12.65;;;11.85;;
26062;SDS011;13837;48.562;12.108;2022-09-09T07:18:50;12.40;;;11.60;;
26062;SDS011;13837;48.562;12.108;2022-09-09T07:21:17;12.05;;;11.27;;
26062;SDS011;13837;48.562;12.108;2022-09-09T07:23:44;11.90;;;11.13;;
26062;SDS011;13837;48.562;12.108;2022-09-09T07:26:11;11.63;;;10.88;;
26062;SDS011;13837;48.562;12.108;2022-09-09T07:28:39;11.60;;;10.70;;
26062;SDS011;13837;48.562;12.108;2022-09-09T07:31:06;11.45;;;10.65;;
26062;SDS011;13837;48.562;12.108;2022-09-09T07:33:38;11.82;;;11.10;;
26062;SDS011;13837;48.562;12.108;2022-09-09T07:36:07;12.15;;;11.27;;
26062;SDS011;13837;48.562;12.108;2022-09-09T07:38:44;14.82;;;13.52;;
26062;SDS011;13837;48.562;12.108;2022-09-09T07:41:13;16.17;;;14.90;;
26062;SDS011;13837;48.562;12.108;2022-09-09T07:43:44;16.63;;;15.07;;
26062;SDS011;13837;48.562;12.108;2022-09-09T07:46:12;17.17;;;15.63;;
26062;SDS011;13837;48.562;12.108;2022-09-09T07:48:39;17.55;;;15.95;;
26062;SDS011;13837;48.562;12.108;2022-09-09T07:51:11;18.30;;;16.58;;
26062;SDS011;13837;48.562;12.108;2022-09-09T07:53:46;17.90;;;16.05;;
26062;SDS011;13837;48.562;12.108;2022-09-09T07:56:13;17.75;;;16.05;;
26062;SDS011;13837;48.562;12.108;2022-09-09T07:58:44;17.13;;;15.45;;
26062;SDS011;13837;48.562;12.108;2022-09-09T08:01:13;17.08;;;15.68;;
26062;SDS011;13837;48.562;12.108;2022-09-09T08:03:43;15.13;;;13.90;;
26062;SDS011;13837;48.562;12.108;2022-09-09T08:06:10;15.23;;;13.77;;
26062;SDS011;13837;48.562;12.108;2022-09-09T08:08:38;15.23;;;13.77;;
26062;SDS011;13837;48.562;12.108;2022-09-09T08:11:07;13.68;;;12.68;;
26062;SDS011;13837;48.562;12.108;2022-09-09T08:13:38;26.60;;;22.85;;
26062;SDS011;13837;48.562;12.108;2022-09-09T08:16:09;29.20;;;24.23;;
26062;SDS011;13837;48.562;12.108;2022-09-09T08:18:37;33.40;;;30.00;;
26062;SDS011;13837;48.562;12.108;2022-09-09T08:21:08;21.30;;;18.30;;
26062;SDS011;13837;48.562;12.108;2022-09-09T08:23:56;12.73;;;11.38;;
26062;SDS011;13837;48.562;12.108;2022-09-09T08:26:24;11.43;;;10.52;;
26062;SDS011;13837;48.562;12.108;2022-09-09T08:28:53;10.90;;;10.05;;
26062;SDS011;13837;48.562;12.108;2022-09-09T08:31:32;10.68;;;9.82;;
26062;SDS011;13837;48.562;12.108;2022-09-09T08:34:04;11.27;;;10.38;;
26062;SDS011;13837;48.562;12.108;2022-09-09T08:36:34;14.88;;;11.40;;
26062;SDS011;13837;48.562;12.108;2022-09-09T08:39:02;12.00;;;10.93;;
26062;SDS011;13837;48.562;12.108;2022-09-09T08:47:45;10.23;;;9.43;;
26062;SDS011;13837;48.562;12.108;2022-09-09T08:50:29;10.73;;;9.73;;
26062;SDS011;13837;48.562;12.108;2022-09-09T08:53:14;10.15;;;9.15;;
26062;SDS011;13837;48.562;12.108;2022-09-09T08:55:50;11.23;;;10.07;;
26062;SDS011;13837;48.562;12.108;2022-09-09T08:58:25;14.00;;;10.25;;
26062;SDS011;13837;48.562;12.108;2022-09-09T09:03:57;11.00;;;10.10;;
26062;SDS011;13837;48.562;12.108;2022-09-09T09:12:33;14.60;;;13.07;;
26062;SDS011;13837;48.562;12.108;2022-09-09T09:15:08;12.05;;;11.05;;
26062;SDS011;13837;48.562;12.108;2022-09-09T09:17:47;10.88;;;9.98;;
26062;SDS011;13837;48.562;12.108;2022-09-09T09:20:15;11.02;;;10.02;;
26062;SDS011;13837;48.562;12.108;2022-09-09T09:22:50;11.02;;;10.02;;
26062;SDS011;13837;48.562;12.108;2022-09-09T09:25:23;9.85;;;9.15;;
26062;SDS011;13837;48.562;12.108;2022-09-09T09:28:00;10.85;;;8.40;;
26062;SDS011;13837;48.562;12.108;2022-09-09T09:30:45;9.23;;;8.52;;
26062;SDS011;13837;48.562;12.108;2022-09-09T09:36:20;8.50;;;7.80;;
26062;SDS011;13837;48.562;12.108;2022-09-09T09:41:31;10.57;;;9.50;;
26062;SDS011;13837;48.562;12.108;2022-09-09T09:43:58;9.57;;;8.75;;
26062;SDS011;13837;48.562;12.108;2022-09-09T09:46:27;10.23;;;9.32;;
26062;SDS011;13837;48.562;12.108;2022-09-09T09:48:59;10.35;;;9.38;;
26062;SDS011;13837;48.562;12.108;2022-09-09T09:51:26;10.60;;;9.80;;
26062;SDS011;13837;48.562;12.108;2022-09-09T09:54:02;11.35;;;10.45;;
26062;SDS011;13837;48.562;12.108;2022-09-09T09:56:35;12.40;;;9.43;;
26062;SDS011;13837;48.562;12.108;2022-09-09T09:59:04;10.68;;;9.68;;
26062;SDS011;13837;48.562;12.108;2022-09-09T10:01:34;11.00;;;9.85;;
26062;SDS011;13837;48.562;12.108;2022-09-09T10:04:15;9.98;;;9.18;;
26062;SDS011;13837;48.562;12.108;2022-09-09T10:09:25;11.27;;;9.43;;
26062;SDS011;13837;48.562;12.108;2022-09-09T10:23:10;9.18;;;8.32;;
26062;SDS011;13837;48.562;12.108;2022-09-09T10:26:16;8.88;;;7.97;;
26062;SDS011;13837;48.562;12.108;2022-09-09T10:29:22;9.88;;;7.60;;
26062;SDS011;13837;48.562;12.108;2022-09-09T10:37:11;9.00;;;8.20;;
26062;SDS011;13837;48.562;12.108;2022-09-09T10:39:58;8.95;;;8.27;;
26062;SDS011;13837;48.562;12.108;2022-09-09T10:42:37;9.38;;;8.27;;
26062;SDS011;13837;48.562;12.108;2022-09-09T10:53:51;7.97;;;7.28;;
26062;SDS011;13837;48.562;12.108;2022-09-09T10:56:29;8.18;;;7.47;;
26062;SDS011;13837;48.562;12.108;2022-09-09T10:59:05;8.75;;;7.70;;
26062;SDS011;13837;48.562;12.108;2022-09-09T11:01:59;7.90;;;7.20;;
26062;SDS011;13837;48.562;12.108;2022-09-09T11:07:44;8.50;;;6.78;;
26062;SDS011;13837;48.562;12.108;2022-09-09T11:10:34;7.32;;;6.72;;
26062;SDS011;13837;48.562;12.108;2022-09-09T11:13:05;8.27;;;7.30;;
26062;SDS011;13837;48.562;12.108;2022-09-09T11:15:49;7.32;;;6.70;;
26062;SDS011;13837;48.562;12.108;2022-09-09T11:18:20;8.75;;;6.80;;
26062;SDS011;13837;48.562;12.108;2022-09-09T11:20:49;7.55;;;7.00;;
26062;SDS011;13837;48.562;12.108;2022-09-09T11:23:24;9.00;;;6.63;;
26062;SDS011;13837;48.562;12.108;2022-09-09T11:25:55;7.10;;;6.30;;
26062;SDS011;13837;48.562;12.108;2022-09-09T11:40:04;5.63;;;5.10;;
26062;SDS011;13837;48.562;12.108;2022-09-09T11:43:05;5.35;;;4.95;;
26062;SDS011;13837;48.562;12.108;2022-09-09T11:45:37;5.93;;;5.10;;
26062;SDS011;13837;48.562;12.108;2022-09-09T11:48:22;5.38;;;5.07;;
26062;SDS011;13837;48.562;12.108;2022-09-09T11:56:24;6.47;;;5.45;;
26062;SDS011;13837;48.562;12.108;2022-09-09T11:58:54;8.05;;;5.18;;
26062;SDS011;13837;48.562;12.108;2022-09-09T12:09:22;6.80;;;4.63;;
26062;SDS011;13837;48.562;12.108;2022-09-09T12:17:30;7.32;;;3.80;;
26062;SDS011;13837;48.562;12.108;2022-09-09T12:20:00;4.13;;;3.30;;
26062;SDS011;13837;48.562;12.108;2022-09-09T12:22:35;4.07;;;3.78;;
26062;SDS011;13837;48.562;12.108;2022-09-09T12:33:36;3.42;;;3.10;;
26062;SDS011;13837;48.562;12.108;2022-09-09T12:36:09;4.75;;;3.45;;
26062;SDS011;13837;48.562;12.108;2022-09-09T12:38:40;2.92;;;2.63;;
26062;SDS011;13837;48.562;12.108;2022-09-09T12:41:23;3.15;;;1.95;;
26062;SDS011;13837;48.562;12.108;2022-09-09T12:43:50;3.13;;;1.77;;
26062;SDS011;13837;48.562;12.108;2022-09-09T12:47:00;1.77;;;1.67;;
26062;SDS011;13837;48.562;12.108;2022-09-09T12:51:54;2.05;;;1.30;;
26062;SDS011;13837;48.562;12.108;2022-09-09T12:54:22;2.17;;;1.63;;
26062;SDS011;13837;48.562;12.108;2022-09-09T12:56:48;2.03;;;1.70;;
26062;SDS011;13837;48.562;12.108;2022-09-09T12:59:21;3.53;;;1.38;;
26062;SDS011;13837;48.562;12.108;2022-09-09T13:01:58;1.80;;;1.70;;
26062;SDS011;13837;48.562;12.108;2022-09-09T13:04:24;1.80;;;1.70;;
26062;SDS011;13837;48.562;12.108;2022-09-09T13:06:50;2.65;;;1.98;;
26062;SDS011;13837;48.562;12.108;2022-09-09T13:09:17;4.65;;;1.73;;
26062;SDS011;13837;48.562;12.108;2022-09-09T13:11:44;2.47;;;2.22;;
26062;SDS011;13837;48.562;12.108;2022-09-09T13:14:39;2.92;;;1.90;;
26062;SDS011;13837;48.562;12.108;2022-09-09T13:17:04;4.63;;;2.20;;
26062;SDS011;13837;48.562;12.108;2022-09-09T13:19:37;3.17;;;2.40;;
26062;SDS011;13837;48.562;12.108;2022-09-09T13:22:20;4.10;;;2.55;;
26062;SDS011;13837;48.562;12.108;2022-09-09T13:24:46;2.90;;;1.90;;
26062;SDS011;13837;48.562;12.108;2022-09-09T13:27:51;4.28;;;1.77;;
26062;SDS011;13837;48.562;12.108;2022-09-09T13:35:48;2.40;;;1.48;;
26062;SDS011;13837;48.562;12.108;2022-09-09T13:38:21;1.88;;;1.48;;
26062;SDS011;13837;48.562;12.108;2022-09-09T13:40:57;3.78;;;1.40;;
26062;SDS011;13837;48.562;12.108;2022-09-09T13:43:36;2.20;;;1.40;;
26062;SDS011;13837;48.562;12.108;2022-09-09T13:46:04;1.65;;;1.48;;
26062;SDS011;13837;48.562;12.108;2022-09-09T13:48:57;1.73;;;1.63;;
26062;SDS011;13837;48.562;12.108;2022-09-09T13:54:10;1.88;;;1.77;;
26062;SDS011;13837;48.562;12.108;2022-09-09T13:56:39;1.75;;;1.70;;
26062;SDS011;13837;48.562;12.108;2022-09-09T13:59:06;2.20;;;1.70;;
26062;SDS011;13837;48.562;12.108;2022-09-09T14:01:36;1.83;;;1.67;;
26062;SDS011;13837;48.562;12.108;2022-09-09T14:04:02;1.95;;;1.60;;
26062;SDS011;13837;48.562;12.108;2022-09-09T14:06:30;2.95;;;1.80;;
26062;SDS011;13837;48.562;12.108;2022-09-09T14:08:57;1.45;;;1.42;;
26062;SDS011;13837;48.562;12.108;2022-09-09T14:11:23;1.50;;;1.40;;
26062;SDS011;13837;48.562;12.108;2022-09-09T14:13:49;2.65;;;1.65;;
26062;SDS011;13837;48.562;12.108;2022-09-09T14:16:18;2.08;;;1.88;;
26062;SDS011;13837;48.562;12.108;2022-09-09T14:18:44;3.50;;;2.20;;
26062;SDS011;13837;48.562;12.108;2022-09-09T14:21:11;1.92;;;1.83;;
26062;SDS011;13837;48.562;12.108;2022-09-09T14:23:43;2.95;;;2.10;;
26062;SDS011;13837;48.562;12.108;2022-09-09T14:26:09;1.90;;;1.80;;
26062;SDS011;13837;48.562;12.108;2022-09-09T14:28:35;2.80;;;2.13;;
26062;SDS011;13837;48.562;12.108;2022-09-09T14:31:02;3.85;;;2.20;;
26062;SDS011;13837;48.562;12.108;2022-09-09T14:33:29;3.03;;;2.05;;
26062;SDS011;13837;48.562;12.108;2022-09-09T14:36:02;2.47;;;1.80;;
26062;SDS011;13837;48.562;12.108;2022-09-09T14:38:29;3.22;;;1.67;;
26062;SDS011;13837;48.562;12.108;2022-09-09T14:40:56;4.35;;;2.00;;
26062;SDS011;13837;48.562;12.108;2022-09-09T14:43:23;2.25;;;2.05;;
26062;SDS011;13837;48.562;12.108;2022-09-09T14:45:49;1.95;;;1.83;;
26062;SDS011;13837;48.562;12.108;2022-09-09T14:48:16;1.83;;;1.73;;
26062;SDS011;13837;48.562;12.108;2022-09-09T14:50:42;1.95;;;1.85;;
26062;SDS011;13837;48.562;12.108;2022-09-09T14:53:08;2.80;;;2.22;;
26062;SDS011;13837;48.562;12.108;2022-09-09T14:55:35;3.47;;;2.60;;
26062;SDS011;13837;48.562;12.108;2022-09-09T14:58:04;2.90;;;2.55;;
26062;SDS011;13837;48.562;12.108;2022-09-09T15:00:31;2.40;;;2.30;;
26062;SDS011;13837;48.562;12.108;2022-09-09T15:02:56;2.60;;;2.50;;
26062;SDS011;13837;48.562;12.108;2022-09-09T15:05:22;2.50;;;2.30;;
26062;SDS011;13837;48.562;12.108;2022-09-09T15:07:49;2.40;;;2.30;;
26062;SDS011;13837;48.562;12.108;2022-09-09T15:10:15;2.40;;;2.30;;
26062;SDS011;13837;48.562;12.108;2022-09-09T15:12:42;2.63;;;2.33;;
26062;SDS011;13837;48.562;12.108;2022-09-09T15:15:09;2.35;;;2.20;;
26062;SDS011;13837;48.562;12.108;2022-09-09T15:17:35;1.90;;;1.85;;
26062;SDS011;13837;48.562;12.108;2022-09-09T15:20:02;2.60;;;2.40;;
26062;SDS011;13837;48.562;12.108;2022-09-09T15:22:28;2.70;;;2.28;;
26062;SDS011;13837;48.562;12.108;2022-09-09T15:24:54;3.35;;;3.08;;
26062;SDS011;13837;48.562;12.108;2022-09-09T15:27:19;3.35;;;3.15;;
26062;SDS011;13837;48.562;12.108;2022-09-09T15:29:45;3.03;;;2.90;;
26062;SDS011;13837;48.562;12.108;2022-09-09T15:32:11;3.03;;;2.83;;
26062;SDS011;13837;48.562;12.108;2022-09-09T15:34:37;3.00;;;2.80;;
26062;SDS011;13837;48.562;12.108;2022-09-09T15:37:04;3.15;;;3.00;;
26062;SDS011;13837;48.562;12.108;2022-09-09T15:39:31;2.97;;;2.88;;
26062;SDS011;13837;48.562;12.108;2022-09-09T15:41:57;2.90;;;2.70;;
26062;SDS011;13837;48.562;12.108;2022-09-09T15:44:22;2.85;;;2.53;;
26062;SDS011;13837;48.562;12.108;2022-09-09T15:46:51;2.70;;;2.60;;
26062;SDS011;13837;48.562;12.108;2022-09-09T15:49:22;4.07;;;3.78;;
26062;SDS011;13837;48.562;12.108;2022-09-09T15:51:51;3.30;;;3.10;;
26062;SDS011;13837;48.562;12.108;2022-09-09T15:54:18;3.35;;;3.05;;
26062;SDS011;13837;48.562;12.108;2022-09-09T15:56:47;3.17;;;2.90;;
26062;SDS011;13837;48.562;12.108;2022-09-09T15:59:16;3.20;;;3.10;;
26062;SDS011;13837;48.562;12.108;2022-09-09T16:01:42;3.40;;;3.20;;
26062;SDS011;13837;48.562;12.108;2022-09-09T16:04:08;4.00;;;2.90;;
26062;SDS011;13837;48.562;12.108;2022-09-09T16:06:34;3.10;;;2.90;;
26062;SDS011;13837;48.562;12.108;2022-09-09T16:09:02;2.92;;;2.78;;
26062;SDS011;13837;48.562;12.108;2022-09-09T16:11:30;3.25;;;3.05;;
26062;SDS011;13837;48.562;12.108;2022-09-09T16:13:58;3.10;;;2.90;;
26062;SDS011;13837;48.562;12.108;2022-09-09T16:16:25;3.22;;;3.03;;
26062;SDS011;13837;48.562;12.108;2022-09-09T16:18:57;3.53;;;3.22;;
26062;SDS011;13837;48.562;12.108;2022-09-09T16:21:28;2.90;;;2.80;;
26062;SDS011;13837;48.562;12.108;2022-09-09T16:23:57;3.05;;;2.95;;
26062;SDS011;13837;48.562;12.108;2022-09-09T16:26:31;3.40;;;3.15;;
26062;SDS011;13837;48.562;12.108;2022-09-09T16:28:58;3.33;;;3.10;;
26062;SDS011;13837;48.562;12.108;2022-09-09T16:31:25;2.70;;;2.60;;
26062;SDS011;13837;48.562;12.108;2022-09-09T16:33:51;4.60;;;3.00;;
26062;SDS011;13837;48.562;12.108;2022-09-09T16:36:19;2.70;;;2.60;;
26062;SDS011;13837;48.562;12.108;2022-09-09T16:38:46;3.47;;;3.27;;
26062;SDS011;13837;48.562;12.108;2022-09-09T16:41:12;3.05;;;2.95;;
26062;SDS011;13837;48.562;12.108;2022-09-09T16:43:39;3.38;;;3.20;;
26062;SDS011;13837;48.562;12.108;2022-09-09T16:46:13;3.67;;;3.47;;
26062;SDS011;13837;48.562;12.108;2022-09-09T16:48:42;3.10;;;3.00;;
26062;SDS011;13837;48.562;12.108;2022-09-09T16:51:11;2.58;;;2.45;;
26062;SDS011;13837;48.562;12.108;2022-09-09T16:53:39;3.22;;;3.10;;
26062;SDS011;13837;48.562;12.108;2022-09-09T16:56:08;3.60;;;3.03;;
26062;SDS011;13837;48.562;12.108;2022-09-09T16:58:35;3.38;;;3.10;;
26062;SDS011;13837;48.562;12.108;2022-09-09T17:01:02;3.47;;;3.10;;
26062;SDS011;13837;48.562;12.108;2022-09-09T17:03:29;3.63;;;3.42;;
26062;SDS011;13837;48.562;12.108;2022-09-09T17:05:55;5.10;;;3.40;;
26062;SDS011;13837;48.562;12.108;2022-09-09T17:08:23;6.18;;;3.13;;
26062;SDS011;13837;48.562;12.108;2022-09-09T17:10:49;3.65;;;3.30;;
26062;SDS011;13837;48.562;12.108;2022-09-09T17:13:15;4.50;;;3.75;;
26062;SDS011;13837;48.562;12.108;2022-09-09T17:15:44;3.67;;;3.40;;